Pennersville, Pennsylvania
Current Conditions -  °F | °C
As of 6:53 PM on Sunday 23 Nov 2014 (Local Time) from KRYT Reporting Station
Broken Clouds Broken Clouds  
Wind Chill: 44°   Ceiling: 4000
Heat Index: 44°   Visibility: 10mi
Dew Point: 28°   Wind: 0mph
Humidity: 53%   Direction: NA
Pressure: 30.01"   Gusts: NA
Location:  39.7777°N, 77.5693°W
Report Text: KRYT 232353Z AUTO 00000KT 10SM BKN040 07/M02 A3001 RMK AO2 SLP171 T00671022 10122 20061 58015 $
Loading
Personal Weather Stations






























Interactive Weather Map New forecast layout! Learn more

10-Day Weather Forecast

Advertisements
Track Severe Weather on mobile